createdAt,value
2019-02-18T00:01:02.551Z,7.60
2019-02-18T00:03:35.663Z,7.07
2019-02-18T00:06:10.154Z,7.17
2019-02-18T00:08:43.784Z,7.32
2019-02-18T00:11:21.278Z,7.23
2019-02-18T00:13:56.954Z,7.20
2019-02-18T00:16:31.354Z,7.23
2019-02-18T00:19:04.064Z,6.87
2019-02-18T00:21:36.935Z,6.73
2019-02-18T00:24:09.483Z,7.77
2019-02-18T00:26:42.574Z,6.83
2019-02-18T00:29:17.829Z,7.35
2019-02-18T00:31:50.332Z,7.47
2019-02-18T00:34:23.970Z,6.80
2019-02-18T00:36:58.000Z,6.93
2019-02-18T00:39:30.633Z,6.97
2019-02-18T00:42:04.131Z,6.90
2019-02-18T00:44:37.052Z,6.83
2019-02-18T00:47:09.658Z,7.13
2019-02-18T00:49:42.166Z,6.13
2019-02-18T00:52:16.029Z,6.78
2019-02-18T00:54:48.834Z,6.40
2019-02-18T00:57:21.638Z,6.27
2019-02-18T00:59:54.571Z,6.73
2019-02-18T01:02:27.195Z,6.87
2019-02-18T01:05:00.760Z,5.80
2019-02-18T01:07:36.895Z,6.68
2019-02-18T01:10:12.069Z,6.93
2019-02-18T01:12:44.655Z,6.00
2019-02-18T01:15:17.045Z,6.07
2019-02-18T01:17:49.585Z,6.80
2019-02-18T01:20:21.969Z,6.50
2019-02-18T01:22:55.470Z,6.10
2019-02-18T01:25:28.185Z,6.70
2019-02-18T01:28:00.747Z,6.50
2019-02-18T01:30:33.750Z,7.07
2019-02-18T01:33:06.283Z,6.20
2019-02-18T01:35:38.871Z,6.13
2019-02-18T01:38:11.603Z,6.37
2019-02-18T01:40:44.265Z,6.40
2019-02-18T01:43:17.664Z,6.87
2019-02-18T01:45:54.531Z,6.40
2019-02-18T01:48:28.073Z,6.73
2019-02-18T01:51:00.763Z,6.60
2019-02-18T01:53:33.594Z,6.23
2019-02-18T01:56:06.233Z,6.13
2019-02-18T01:58:39.081Z,6.30
2019-02-18T02:01:11.994Z,6.40
2019-02-18T02:03:44.596Z,6.23
2019-02-18T02:06:17.882Z,6.07
2019-02-18T02:08:51.766Z,7.10
2019-02-18T02:11:24.345Z,6.47
2019-02-18T02:13:56.953Z,6.15
2019-02-18T02:16:31.819Z,6.20
2019-02-18T02:19:04.418Z,6.27
2019-02-18T02:21:37.168Z,6.00
2019-02-18T02:24:11.308Z,5.80
2019-02-18T02:26:44.511Z,6.23
2019-02-18T02:29:17.012Z,5.90
2019-02-18T02:31:49.964Z,6.23
2019-02-18T02:34:23.075Z,6.03
2019-02-18T02:36:56.597Z,5.57
2019-02-18T02:39:29.743Z,6.23
2019-02-18T02:42:04.265Z,6.05
2019-02-18T02:44:36.960Z,6.40
2019-02-18T02:47:10.776Z,5.97
2019-02-18T02:49:43.366Z,5.87
2019-02-18T02:52:16.591Z,5.90
2019-02-18T02:54:49.352Z,5.87
2019-02-18T02:57:21.941Z,5.87
2019-02-18T02:59:54.478Z,6.17
2019-02-18T03:02:27.731Z,6.23
2019-02-18T03:05:00.474Z,5.87
2019-02-18T03:07:33.036Z,5.20
2019-02-18T03:10:06.475Z,5.80
2019-02-18T03:12:39.523Z,5.33
2019-02-18T03:15:14.862Z,6.00
2019-02-18T03:17:47.847Z,5.90
2019-02-18T03:20:20.763Z,6.13
2019-02-18T03:22:53.421Z,5.80
2019-02-18T03:25:28.789Z,5.40
2019-02-18T03:28:13.593Z,5.10
2019-02-18T03:31:01.976Z,5.50
2019-02-18T03:33:45.360Z,5.70
2019-02-18T03:36:17.952Z,5.50
2019-02-18T03:38:52.036Z,5.63
2019-02-18T03:41:24.547Z,5.90
2019-02-18T03:43:57.077Z,6.30
2019-02-18T03:46:31.893Z,5.37
2019-02-18T03:49:04.510Z,5.90
2019-02-18T03:51:37.056Z,6.07
2019-02-18T03:54:10.237Z,5.67
2019-02-18T03:56:42.677Z,6.20
2019-02-18T03:59:15.215Z,5.83
2019-02-18T04:01:49.260Z,5.70
2019-02-18T04:04:21.893Z,6.10
2019-02-18T04:06:54.422Z,5.70
2019-02-18T04:09:27.294Z,5.57
2019-02-18T04:11:59.896Z,6.10
2019-02-18T04:14:33.789Z,6.40
2019-02-18T04:17:06.991Z,6.32
2019-02-18T04:19:40.476Z,6.30
2019-02-18T04:22:13.151Z,6.00
2019-02-18T04:24:46.112Z,6.10
2019-02-18T04:27:18.626Z,6.83
2019-02-18T04:29:51.448Z,6.07
2019-02-18T04:32:24.302Z,6.30
2019-02-18T04:34:56.769Z,5.90
2019-02-18T04:37:29.444Z,6.47
2019-02-18T04:40:02.428Z,5.33
2019-02-18T04:42:35.621Z,6.20
2019-02-18T04:45:09.210Z,5.83
2019-02-18T04:47:44.467Z,5.60
2019-02-18T04:50:17.143Z,5.73
2019-02-18T04:52:49.523Z,5.83
2019-02-18T04:55:23.450Z,5.70
2019-02-18T04:57:56.068Z,5.90
2019-02-18T05:00:29.786Z,6.10
2019-02-18T05:03:03.156Z,5.30
2019-02-18T05:05:36.460Z,6.17
2019-02-18T05:08:08.978Z,5.17
2019-02-18T05:10:43.646Z,5.80
2019-02-18T05:13:16.226Z,5.93
2019-02-18T05:15:50.010Z,5.67
2019-02-18T05:18:23.695Z,5.87
2019-02-18T05:20:56.677Z,5.80
2019-02-18T05:23:29.189Z,5.97
2019-02-18T05:26:03.809Z,5.67
2019-02-18T05:28:36.858Z,6.50
2019-02-18T05:31:09.364Z,5.77
2019-02-18T05:33:43.270Z,5.87
2019-02-18T05:36:15.814Z,6.20
2019-02-18T05:38:48.306Z,6.60
2019-02-18T05:41:21.809Z,6.13
2019-02-18T05:43:55.026Z,10.55
2019-02-18T05:46:29.090Z,6.40
2019-02-18T05:49:03.191Z,6.93
2019-02-18T05:51:35.986Z,6.63
2019-02-18T05:54:08.476Z,7.03
2019-02-18T05:56:41.316Z,6.10
2019-02-18T05:59:13.908Z,6.40
2019-02-18T06:01:47.478Z,6.20
2019-02-18T06:04:21.139Z,5.30
2019-02-18T06:06:53.772Z,6.10
2019-02-18T06:09:30.178Z,5.60
2019-02-18T06:12:04.644Z,6.10
2019-02-18T06:14:37.026Z,6.10
2019-02-18T06:17:09.632Z,6.47
2019-02-18T06:19:43.002Z,6.27
2019-02-18T06:22:15.679Z,5.87
2019-02-18T06:24:50.264Z,6.13
2019-02-18T06:27:23.290Z,6.20
2019-02-18T06:29:56.226Z,5.30
2019-02-18T06:32:30.504Z,5.83
2019-02-18T06:35:04.223Z,6.20
2019-02-18T06:37:37.202Z,6.33
2019-02-18T06:40:10.429Z,6.37
2019-02-18T06:42:43.927Z,6.63
2019-02-18T06:45:31.559Z,6.50
2019-02-18T06:48:09.795Z,6.87
2019-02-18T06:50:43.059Z,6.53
2019-02-18T06:53:16.455Z,6.10
2019-02-18T06:55:49.019Z,7.23
2019-02-18T06:58:28.259Z,6.00
2019-02-18T07:01:06.263Z,5.97
2019-02-18T07:03:45.539Z,6.10
2019-02-18T07:06:38.721Z,6.67
2019-02-18T07:09:31.119Z,6.28
2019-02-18T07:12:09.818Z,6.13
2019-02-18T07:14:42.783Z,6.97
2019-02-18T07:17:19.162Z,6.83
2019-02-18T07:19:51.798Z,6.73
2019-02-18T07:22:26.042Z,6.63
2019-02-18T07:25:00.016Z,6.23
2019-02-18T07:27:32.406Z,6.57
2019-02-18T07:30:14.132Z,5.80
2019-02-18T07:32:47.289Z,6.33
2019-02-18T07:35:20.646Z,6.43
2019-02-18T07:37:53.453Z,6.47
2019-02-18T07:40:25.904Z,5.90
2019-02-18T07:42:58.561Z,6.33
2019-02-18T07:45:31.062Z,6.43
2019-02-18T07:48:03.926Z,6.47
2019-02-18T07:50:37.527Z,6.23
2019-02-18T07:53:20.541Z,6.10
2019-02-18T07:55:58.335Z,6.00
2019-02-18T07:58:32.210Z,5.93
2019-02-18T08:01:05.861Z,6.57
2019-02-18T08:03:38.388Z,6.20
2019-02-18T08:06:11.589Z,5.47
2019-02-18T08:08:44.396Z,5.87
2019-02-18T08:11:18.300Z,6.37
2019-02-18T08:13:52.208Z,6.13
2019-02-18T08:16:39.433Z,6.50
2019-02-18T08:19:19.692Z,6.07
2019-02-18T08:22:32.498Z,5.67
2019-02-18T08:25:13.073Z,5.87
2019-02-18T08:27:45.738Z,5.80
2019-02-18T08:30:19.342Z,5.90
2019-02-18T08:33:05.850Z,6.22
2019-02-18T08:35:40.294Z,5.83
2019-02-18T08:38:14.566Z,6.47
2019-02-18T08:40:47.431Z,6.37
2019-02-18T08:43:23.331Z,6.03
2019-02-18T08:45:56.189Z,6.20
2019-02-18T08:48:30.280Z,6.77
2019-02-18T08:51:13.574Z,6.35
2019-02-18T08:53:48.001Z,6.30
2019-02-18T08:56:22.263Z,5.77
2019-02-18T08:58:56.768Z,5.90
2019-02-18T09:01:48.027Z,6.20
2019-02-18T09:04:20.814Z,6.03
2019-02-18T09:06:56.785Z,5.80
2019-02-18T09:09:32.288Z,5.62
2019-02-18T09:12:06.538Z,6.22
2019-02-18T09:14:40.053Z,5.70
2019-02-18T09:17:17.238Z,6.77
2019-02-18T09:19:55.010Z,6.30
2019-02-18T09:22:48.299Z,6.00
2019-02-18T09:25:43.393Z,6.25
2019-02-18T09:28:19.071Z,6.47
2019-02-18T09:30:55.234Z,6.03
2019-02-18T09:33:27.835Z,6.23
2019-02-18T09:36:04.837Z,6.20
2019-02-18T09:38:37.757Z,5.80
2019-02-18T09:41:11.275Z,5.60
2019-02-18T09:43:44.077Z,6.10
2019-02-18T09:46:17.543Z,6.00
2019-02-18T09:48:50.780Z,5.77
2019-02-18T09:51:24.819Z,6.30
2019-02-18T09:53:58.079Z,5.93
2019-02-18T09:56:36.810Z,6.03
2019-02-18T09:59:12.373Z,5.97
2019-02-18T10:01:44.999Z,5.50
2019-02-18T10:04:19.174Z,5.97
2019-02-18T10:06:51.795Z,6.37
2019-02-18T10:09:25.879Z,5.53
2019-02-18T10:12:00.541Z,5.83
2019-02-18T10:14:34.987Z,6.43
2019-02-18T10:17:09.061Z,5.67
2019-02-18T10:19:47.805Z,6.20
2019-02-18T10:22:21.548Z,6.37
2019-02-18T10:24:57.468Z,6.10
2019-02-18T10:27:32.061Z,5.63
2019-02-18T10:30:07.214Z,6.37
2019-02-18T10:32:43.939Z,5.90
2019-02-18T10:35:17.310Z,6.40
2019-02-18T10:37:55.143Z,5.80
2019-02-18T10:40:29.015Z,6.28
2019-02-18T10:43:03.333Z,5.93
2019-02-18T10:45:37.448Z,6.47
2019-02-18T10:48:10.198Z,5.83
2019-02-18T10:50:42.843Z,6.32
2019-02-18T10:53:22.563Z,6.20
2019-02-18T10:55:59.824Z,6.37
2019-02-18T10:58:33.352Z,6.30
2019-02-18T11:01:07.364Z,5.80
2019-02-18T11:03:39.770Z,6.10
2019-02-18T11:06:12.342Z,5.37
2019-02-18T11:08:48.045Z,6.00
2019-02-18T11:11:20.558Z,6.20
2019-02-18T11:13:56.949Z,5.57
2019-02-18T11:16:30.048Z,6.50
2019-02-18T11:19:02.699Z,6.33
2019-02-18T11:21:35.407Z,6.23
2019-02-18T11:24:08.552Z,5.40
2019-02-18T11:26:41.924Z,6.00
2019-02-18T11:29:16.443Z,6.03
2019-02-18T11:31:48.980Z,5.70
2019-02-18T11:34:21.656Z,5.73
2019-02-18T11:36:55.134Z,5.50
2019-02-18T11:39:30.363Z,6.27
2019-02-18T11:42:03.494Z,6.57
2019-02-18T11:44:36.649Z,5.80
2019-02-18T11:47:11.140Z,6.10
2019-02-18T11:49:44.537Z,6.20
2019-02-18T11:52:17.253Z,6.30
2019-02-18T11:54:49.837Z,6.40
2019-02-18T11:57:22.330Z,6.17
2019-02-18T11:59:59.245Z,5.97
2019-02-18T12:02:31.818Z,6.97
2019-02-18T12:05:11.311Z,6.17
2019-02-18T12:07:46.746Z,6.10
2019-02-18T12:10:22.415Z,6.20
2019-02-18T12:12:55.997Z,6.80
2019-02-18T12:15:30.340Z,5.97
2019-02-18T12:18:05.146Z,6.20
2019-02-18T12:20:40.379Z,6.80
2019-02-18T12:23:13.387Z,6.43
2019-02-18T12:25:47.971Z,6.60
2019-02-18T12:28:22.274Z,5.87
2019-02-18T12:30:56.265Z,6.70
2019-02-18T12:33:31.628Z,6.57
2019-02-18T12:36:05.491Z,5.97
2019-02-18T12:38:41.153Z,7.97
2019-02-18T12:41:18.935Z,6.93
2019-02-18T12:43:51.989Z,6.37
2019-02-18T12:46:25.420Z,6.33
2019-02-18T12:48:58.572Z,6.47
2019-02-18T12:51:31.815Z,5.70
2019-02-18T12:54:06.084Z,6.78
2019-02-18T12:56:39.652Z,6.27
2019-02-18T12:59:12.252Z,6.50
2019-02-18T13:01:47.999Z,6.87
2019-02-18T13:04:22.220Z,6.23
2019-02-18T13:06:57.180Z,6.57
2019-02-18T13:09:31.311Z,5.60
2019-02-18T13:12:06.851Z,6.07
2019-02-18T13:14:41.311Z,5.63
2019-02-18T13:17:15.621Z,5.33
2019-02-18T13:19:50.698Z,5.73
2019-02-18T13:22:23.307Z,5.67
2019-02-18T13:24:56.596Z,5.83
2019-02-18T13:27:34.711Z,6.00
2019-02-18T13:30:13.659Z,5.20
2019-02-18T13:32:46.581Z,5.63
2019-02-18T13:35:21.642Z,5.20
2019-02-18T13:37:55.288Z,6.47
2019-02-18T13:40:28.102Z,5.70
2019-02-18T13:43:00.995Z,5.97
2019-02-18T13:45:33.454Z,6.27
2019-02-18T13:48:06.104Z,6.20
2019-02-18T13:50:38.618Z,5.70
2019-02-18T13:53:13.883Z,5.23
2019-02-18T13:55:47.478Z,5.77
2019-02-18T13:58:26.064Z,6.10
2019-02-18T14:00:58.777Z,5.87
2019-02-18T14:03:33.775Z,5.97
2019-02-18T14:06:06.676Z,5.43
2019-02-18T14:08:39.182Z,5.50
2019-02-18T14:11:13.758Z,4.77
2019-02-18T14:13:48.623Z,5.60
2019-02-18T14:16:21.781Z,5.80
2019-02-18T14:19:00.079Z,5.13
2019-02-18T14:21:35.239Z,4.67
2019-02-18T14:24:12.996Z,4.47
2019-02-18T14:26:48.052Z,5.33
2019-02-18T14:29:20.734Z,5.97
2019-02-18T14:31:54.913Z,5.50
2019-02-18T14:34:32.780Z,5.43
2019-02-18T14:37:07.219Z,5.90
2019-02-18T14:39:40.437Z,5.63
2019-02-18T14:42:14.480Z,6.03
2019-02-18T14:44:47.424Z,9.47
2019-02-18T14:47:23.964Z,5.73
2019-02-18T14:49:57.624Z,6.00
2019-02-18T14:52:31.434Z,6.15
2019-02-18T14:55:05.706Z,7.00
2019-02-18T14:57:38.845Z,5.70
2019-02-18T15:00:24.428Z,6.30
2019-02-18T15:03:02.660Z,6.78
2019-02-18T15:05:36.157Z,5.23
2019-02-18T15:08:11.330Z,5.17
2019-02-18T15:10:47.689Z,5.43
2019-02-18T15:13:34.486Z,5.03
2019-02-18T15:16:12.163Z,5.20
2019-02-18T15:18:44.834Z,5.00
2019-02-18T15:21:19.851Z,5.50
2019-02-18T15:23:54.050Z,5.00
2019-02-18T15:26:28.783Z,5.47
2019-02-18T15:29:01.854Z,5.50
2019-02-18T15:31:36.949Z,5.10
2019-02-18T15:34:10.756Z,4.67
2019-02-18T15:36:45.301Z,5.00
2019-02-18T15:39:18.697Z,4.30
2019-02-18T15:41:54.816Z,4.23
2019-02-18T15:44:33.571Z,4.13
2019-02-18T15:47:06.660Z,4.20
2019-02-18T15:49:41.969Z,4.37
2019-02-18T15:52:18.022Z,4.10
2019-02-18T15:55:03.400Z,4.60
2019-02-18T15:57:53.680Z,4.33
2019-02-18T16:00:29.881Z,3.90
2019-02-18T16:03:04.420Z,2.90
2019-02-18T16:05:39.196Z,2.53
2019-02-18T16:08:15.674Z,3.10
2019-02-18T16:10:56.419Z,2.30
2019-02-18T16:13:33.909Z,3.00
2019-02-18T16:16:07.322Z,2.67
2019-02-18T16:18:40.027Z,2.70
2019-02-18T16:21:13.263Z,3.37
2019-02-18T16:23:47.196Z,3.00
2019-02-18T16:26:20.982Z,3.67
2019-02-18T16:28:57.162Z,3.30
2019-02-18T16:31:30.610Z,3.57
2019-02-18T16:34:05.093Z,3.23
2019-02-18T16:36:40.435Z,3.77
2019-02-18T16:39:16.379Z,3.13
2019-02-18T16:41:50.587Z,3.27
2019-02-18T16:44:26.180Z,3.83
2019-02-18T16:46:59.818Z,4.70
2019-02-18T16:49:37.060Z,4.00
2019-02-18T16:52:13.671Z,4.13
2019-02-18T16:54:47.214Z,4.03
2019-02-18T16:57:22.723Z,3.87
2019-02-18T16:59:57.306Z,3.97
2019-02-18T17:02:44.021Z,4.47
2019-02-18T17:05:17.530Z,4.37
2019-02-18T17:07:56.411Z,4.37
2019-02-18T17:10:30.582Z,4.60
2019-02-18T17:13:11.095Z,4.73
2019-02-18T17:15:47.387Z,4.80
2019-02-18T17:18:22.039Z,5.27
2019-02-18T17:20:55.533Z,4.87
2019-02-18T17:23:29.824Z,4.90
2019-02-18T17:26:02.540Z,5.30
2019-02-18T17:28:36.572Z,4.77
2019-02-18T17:31:09.404Z,17.00
2019-02-18T17:33:46.599Z,4.57
2019-02-18T17:36:24.988Z,4.90
2019-02-18T17:39:05.040Z,4.43
2019-02-18T17:41:46.367Z,4.50
2019-02-18T17:44:21.227Z,5.22
2019-02-18T17:46:56.112Z,5.07
2019-02-18T17:49:30.551Z,5.00
2019-02-18T17:52:03.084Z,4.60
2019-02-18T17:54:41.389Z,5.32
2019-02-18T17:57:19.564Z,5.17
2019-02-18T17:59:52.145Z,5.30
2019-02-18T18:02:30.314Z,4.87
2019-02-18T18:05:08.631Z,4.77
2019-02-18T18:07:42.683Z,5.83
2019-02-18T18:10:20.071Z,5.40
2019-02-18T18:12:56.713Z,5.40
2019-02-18T18:15:35.175Z,5.73
2019-02-18T18:18:08.619Z,5.83
2019-02-18T18:20:44.758Z,5.33
2019-02-18T18:23:21.227Z,6.27
2019-02-18T18:26:04.927Z,5.90
2019-02-18T18:28:39.037Z,6.60
2019-02-18T18:31:12.250Z,5.90
2019-02-18T18:33:45.924Z,5.63
2019-02-18T18:36:21.660Z,6.37
2019-02-18T18:39:04.895Z,6.82
2019-02-18T18:41:42.212Z,6.03
2019-02-18T18:44:15.693Z,5.73
2019-02-18T18:46:50.249Z,6.20
2019-02-18T18:49:30.912Z,6.70
2019-02-18T18:52:05.076Z,6.80
2019-02-18T18:54:39.223Z,6.97
2019-02-18T18:57:13.474Z,7.20
2019-02-18T18:59:58.304Z,6.67
2019-02-18T19:02:31.680Z,7.53
2019-02-18T19:05:08.327Z,6.65
2019-02-18T19:07:43.720Z,6.93
2019-02-18T19:10:25.336Z,7.43
2019-02-18T19:13:00.705Z,6.43
2019-02-18T19:15:34.388Z,7.07
2019-02-18T19:18:10.211Z,7.00
2019-02-18T19:20:45.533Z,7.40
2019-02-18T19:23:22.771Z,6.63
2019-02-18T19:26:01.655Z,7.40
2019-02-18T19:28:36.728Z,7.50
2019-02-18T19:31:13.277Z,7.22
2019-02-18T19:33:47.014Z,7.00
2019-02-18T19:36:45.321Z,7.37
2019-02-18T19:39:47.980Z,6.87
2019-02-18T19:42:31.636Z,6.67
2019-02-18T19:45:13.456Z,7.33
2019-02-18T19:47:51.998Z,7.32
2019-02-18T19:50:26.393Z,7.10
2019-02-18T19:53:01.811Z,7.17
2019-02-18T19:55:50.719Z,6.93
2019-02-18T19:58:36.779Z,7.00
2019-02-18T20:01:11.433Z,6.83
2019-02-18T20:03:46.598Z,6.70
2019-02-18T20:06:30.354Z,7.40
2019-02-18T20:09:12.871Z,6.87
2019-02-18T20:11:49.606Z,7.40
2019-02-18T20:14:31.526Z,6.80
2019-02-18T20:17:09.711Z,7.40
2019-02-18T20:19:44.815Z,7.57
2019-02-18T20:22:21.679Z,6.67
2019-02-18T20:24:55.706Z,6.40
2019-02-18T20:27:30.462Z,7.03
2019-02-18T20:30:12.718Z,7.20
2019-02-18T20:32:45.626Z,7.07
2019-02-18T20:35:24.008Z,6.80
2019-02-18T20:37:57.595Z,7.40
2019-02-18T20:40:31.654Z,7.30
2019-02-18T20:43:06.701Z,7.77
2019-02-18T20:45:39.979Z,6.83
2019-02-18T20:48:13.865Z,7.10
2019-02-18T20:50:49.688Z,7.10
2019-02-18T20:53:24.949Z,7.60
2019-02-18T20:55:57.679Z,7.50
2019-02-18T20:58:33.569Z,7.47
2019-02-18T21:01:07.588Z,6.60
2019-02-18T21:03:42.886Z,6.90
2019-02-18T21:06:23.874Z,8.00
2019-02-18T21:09:00.656Z,7.53
2019-02-18T21:11:34.039Z,8.33
2019-02-18T21:14:06.672Z,7.43
2019-02-18T21:16:39.498Z,7.40
2019-02-18T21:19:12.201Z,7.50
2019-02-18T21:21:51.724Z,7.97
2019-02-18T21:24:28.735Z,8.00
2019-02-18T21:27:02.843Z,6.90
2019-02-18T21:29:43.895Z,7.30
2019-02-18T21:32:25.179Z,7.63
2019-02-18T21:34:57.791Z,7.30
2019-02-18T21:37:31.974Z,7.83
2019-02-18T21:40:06.210Z,7.97
2019-02-18T21:42:39.057Z,7.67
2019-02-18T21:45:20.337Z,7.50
2019-02-18T21:47:55.460Z,7.33
2019-02-18T21:50:29.143Z,8.07
2019-02-18T21:53:02.847Z,7.97
2019-02-18T21:55:44.747Z,8.03
2019-02-18T21:58:19.603Z,7.78
2019-02-18T22:00:55.836Z,7.30
2019-02-18T22:03:30.415Z,8.07
2019-02-18T22:06:04.055Z,7.47
2019-02-18T22:08:37.573Z,8.07
2019-02-18T22:11:14.450Z,7.43
2019-02-18T22:13:49.971Z,7.43
2019-02-18T22:16:42.598Z,7.77
2019-02-18T22:19:18.342Z,7.90
2019-02-18T22:21:51.541Z,7.73
2019-02-18T22:24:26.311Z,7.30
2019-02-18T22:26:59.817Z,6.43
2019-02-18T22:29:34.513Z,7.60
2019-02-18T22:32:07.548Z,7.13
2019-02-18T22:34:41.364Z,7.37
2019-02-18T22:37:15.571Z,7.53
2019-02-18T22:39:50.163Z,6.67
2019-02-18T22:42:22.751Z,7.75
2019-02-18T22:44:55.651Z,7.57
2019-02-18T22:47:28.734Z,6.47
2019-02-18T22:50:01.532Z,6.80
2019-02-18T22:52:34.175Z,6.73
2019-02-18T22:55:07.989Z,6.80
2019-02-18T22:57:40.474Z,6.90
2019-02-18T23:00:55.945Z,6.80
2019-02-18T23:03:30.432Z,7.33
2019-02-18T23:06:05.872Z,6.33
2019-02-18T23:08:48.946Z,6.77
2019-02-18T23:11:21.753Z,7.30
2019-02-18T23:13:55.091Z,6.77
2019-02-18T23:16:29.127Z,6.67
2019-02-18T23:19:03.336Z,7.07
2019-02-18T23:21:36.622Z,7.10
2019-02-18T23:24:10.098Z,6.93
2019-02-18T23:26:44.810Z,6.67
2019-02-18T23:29:21.726Z,6.47
2019-02-18T23:31:57.174Z,7.00
2019-02-18T23:34:30.918Z,7.00
2019-02-18T23:37:04.078Z,6.87
2019-02-18T23:39:38.491Z,7.00
2019-02-18T23:42:12.545Z,6.73
2019-02-18T23:44:46.558Z,6.67
2019-02-18T23:47:19.098Z,6.77
2019-02-18T23:49:52.532Z,6.90
2019-02-18T23:52:26.671Z,7.47
2019-02-18T23:55:00.882Z,7.23
2019-02-18T23:57:33.596Z,6.80
